GCXO/TFN METAR and TAF weather

Enter ICAO airport designator
Station Type Date Time Source
GCXO METAR 2021/09/24 06:30 UTC NOAA

GCXO 240630Z 27004KT 230V310 9999 SCT005 17/16 Q1018 NOSIG


Station Type Date Time Source
GCXO Decoded METAR 2021/09/24 06:30 UTC NOAA

Tenerife / Los Rodeos, Spain (GCXO) 28-28N 016-19W 617M
Sep 24, 2021 - 02:30 AM EDT / 2021.09.24 0630 UTC
Wind: from the W (270 degrees) at 5 MPH (4 KT) (direction variable):0
Visibility: greater than 7 mile(s):0
Sky conditions: partly cloudy
Temperature: 62 F (17 C)
Dew Point: 60 F (16 C)
Relative Humidity: 93%
Pressure (altimeter): 30.06 in. Hg (1018 hPa)
ob: GCXO 240630Z 27004KT 230V310 9999 SCT005 17/16 Q1018 NOSIG
cycle: 6

Station Type Date Time Source
GCXO TAF 2021/09/24 04:45 UTC NOAA

TAF
AMD TAF
AMD GCXO 240440Z 2404/2503 29009KT 9999 SCT020 TX25/2414Z TN16/2406Z PROB30
TEMPO 2405/2411 4000 -RA BKN010

Example: see airport list